Hlavní strana
METAR-TAF:

METAR-TAF

Letiště :

Wellington, Nový Zéland

zeměpisná šířka: 41-20S, zeměpisná délka: 174-48E, výška: 12 m

Aktuální stav počasí

Zpráva byla vytvořena před 36 minutami, v 14:00 UTC
Severoseverozápadní vítr 12 kt
Teplota 12°C
Vlhkost vzduchu 67%
Tlak 1002 hPa
Viditelnost 10 km a více

METAR: NZWN 241400Z AUTO 34012KT 9999 FEW060/// 12/06 Q1002 NOSIG

Čas: 02:36 (14:36 UTC)

Předpověď počasí

Zpráva byla vytvořena před 3 hodinami a 33 minutami, v 11:03 UTC
Předpověď platná od 24 v 12 UTC do 25 v 12 UTC
Severoseverozápadní vítr 15 kt s nárazy do 25 kt
Viditelnost 10 km a více
Oblačno až skoro zataženo ve výšce 2000 ft
slabé dešťové přeháňky
Dočasný
od 24 v 19 UTC do 24 v 22 UTC
Viditelnost: 7000 m
dešťové přeháňky
Změna
od 25 v 00 UTC do 25 v 02 UTC
Západoseverozápadní vítr 8 kt

TAF: NZWN 241103Z 2412/2512 34015G25KT 9999 -SHRA BKN020 TEMPO 2419/2422 7000 SHRA BECMG 2500/2502 30008KT

Stav a předpovědi počasí z více než 4 000 letišť (zprávy METAR a TAF).

Červené a žluté tečky na mapě představují dostupné meteorologické stanice.

Když kurzor umístíte na tečku, zobrazí se název stanice.

Pak kliknutím zobrazíte stav a předpověď počasí.

Chcete-li změnit mapu, kliknutím na zelené tlačítko se znaménkem +mapu přiblížíte, kliknutím na zelené tlačítko se znaménkem – mapu oddálíte a kliknutím na zelené šipky přejdete na sousední mapy.


METAR-TAF: